sensor_id;sensor_type;location;lat;lon;timestamp;P1;durP1;ratioP1;P2;durP2;ratioP2
4616;SDS011;2321;42.704;23.384;2023-08-20T00:00:50;58.38;;;36.72;;
4616;SDS011;2321;42.704;23.384;2023-08-20T00:05:45;34.45;;;26.83;;
4616;SDS011;2321;42.704;23.384;2023-08-20T00:08:13;24.60;;;21.95;;
4616;SDS011;2321;42.704;23.384;2023-08-20T00:13:06;34.78;;;31.05;;
4616;SDS011;2321;42.704;23.384;2023-08-20T00:18:00;51.70;;;36.55;;
4616;SDS011;2321;42.704;23.384;2023-08-20T00:20:28;36.57;;;30.67;;
4616;SDS011;2321;42.704;23.384;2023-08-20T00:22:57;44.85;;;34.20;;
4616;SDS011;2321;42.704;23.384;2023-08-20T00:25:24;36.05;;;26.95;;
4616;SDS011;2321;42.704;23.384;2023-08-20T00:27:52;91.07;;;46.97;;
4616;SDS011;2321;42.704;23.384;2023-08-20T00:30:19;35.20;;;26.93;;
4616;SDS011;2321;42.704;23.384;2023-08-20T00:32:46;77.63;;;44.20;;
4616;SDS011;2321;42.704;23.384;2023-08-20T00:35:13;36.88;;;26.38;;
4616;SDS011;2321;42.704;23.384;2023-08-20T00:37:40;48.42;;;31.98;;
4616;SDS011;2321;42.704;23.384;2023-08-20T00:40:09;54.53;;;32.47;;
4616;SDS011;2321;42.704;23.384;2023-08-20T00:42:36;66.33;;;35.23;;
4616;SDS011;2321;42.704;23.384;2023-08-20T00:45:04;38.53;;;26.97;;
4616;SDS011;2321;42.704;23.384;2023-08-20T00:47:31;60.00;;;33.93;;
4616;SDS011;2321;42.704;23.384;2023-08-20T00:49:58;46.80;;;31.10;;
4616;SDS011;2321;42.704;23.384;2023-08-20T00:52:25;47.50;;;30.93;;
4616;SDS011;2321;42.704;23.384;2023-08-20T00:54:52;37.70;;;27.10;;
4616;SDS011;2321;42.704;23.384;2023-08-20T00:57:21;43.13;;;30.23;;
4616;SDS011;2321;42.704;23.384;2023-08-20T00:59:48;74.10;;;37.87;;
4616;SDS011;2321;42.704;23.384;2023-08-20T01:02:16;48.87;;;31.30;;
4616;SDS011;2321;42.704;23.384;2023-08-20T01:04:44;52.67;;;32.27;;
4616;SDS011;2321;42.704;23.384;2023-08-20T01:07:14;45.27;;;29.97;;
4616;SDS011;2321;42.704;23.384;2023-08-20T01:09:50;48.50;;;31.27;;
4616;SDS011;2321;42.704;23.384;2023-08-20T01:12:25;53.60;;;31.93;;
4616;SDS011;2321;42.704;23.384;2023-08-20T01:14:53;55.43;;;32.13;;
4616;SDS011;2321;42.704;23.384;2023-08-20T01:17:20;49.80;;;29.87;;
4616;SDS011;2321;42.704;23.384;2023-08-20T01:19:47;43.67;;;28.47;;
4616;SDS011;2321;42.704;23.384;2023-08-20T01:22:21;36.07;;;27.67;;
4616;SDS011;2321;42.704;23.384;2023-08-20T01:25:11;52.87;;;32.13;;
4616;SDS011;2321;42.704;23.384;2023-08-20T01:27:49;51.20;;;31.40;;
4616;SDS011;2321;42.704;23.384;2023-08-20T01:30:25;30.92;;;24.38;;
4616;SDS011;2321;42.704;23.384;2023-08-20T01:32:54;26.02;;;22.45;;
4616;SDS011;2321;42.704;23.384;2023-08-20T01:35:22;27.60;;;23.58;;
4616;SDS011;2321;42.704;23.384;2023-08-20T01:37:50;22.30;;;20.10;;
4616;SDS011;2321;42.704;23.384;2023-08-20T01:45:10;32.75;;;29.23;;
4616;SDS011;2321;42.704;23.384;2023-08-20T01:47:38;26.27;;;23.38;;
4616;SDS011;2321;42.704;23.384;2023-08-20T01:52:32;33.67;;;26.65;;
4616;SDS011;2321;42.704;23.384;2023-08-20T02:02:19;34.58;;;27.95;;
4616;SDS011;2321;42.704;23.384;2023-08-20T02:26:49;22.40;;;18.85;;
4616;SDS011;2321;42.704;23.384;2023-08-20T02:34:09;26.98;;;22.40;;
4616;SDS011;2321;42.704;23.384;2023-08-20T02:39:04;27.30;;;24.80;;
4616;SDS011;2321;42.704;23.384;2023-08-20T02:51:19;27.52;;;24.98;;
4616;SDS011;2321;42.704;23.384;2023-08-20T03:01:07;26.85;;;24.45;;
4616;SDS011;2321;42.704;23.384;2023-08-20T03:28:13;14.50;;;13.47;;
4616;SDS011;2321;42.704;23.384;2023-08-20T03:35:35;29.17;;;23.85;;
4616;SDS011;2321;42.704;23.384;2023-08-20T03:45:21;47.05;;;32.78;;
4616;SDS011;2321;42.704;23.384;2023-08-20T03:50:16;51.40;;;34.30;;
4616;SDS011;2321;42.704;23.384;2023-08-20T03:52:43;29.05;;;26.40;;
4616;SDS011;2321;42.704;23.384;2023-08-20T03:55:10;35.03;;;25.73;;
4616;SDS011;2321;42.704;23.384;2023-08-20T03:57:37;32.63;;;25.83;;
4616;SDS011;2321;42.704;23.384;2023-08-20T04:00:04;33.63;;;25.03;;
4616;SDS011;2321;42.704;23.384;2023-08-20T04:02:34;41.28;;;28.85;;
4616;SDS011;2321;42.704;23.384;2023-08-20T04:05:03;55.73;;;32.47;;
4616;SDS011;2321;42.704;23.384;2023-08-20T04:07:30;82.17;;;40.23;;
4616;SDS011;2321;42.704;23.384;2023-08-20T04:09:57;60.73;;;34.83;;
4616;SDS011;2321;42.704;23.384;2023-08-20T04:12:24;68.90;;;36.63;;
4616;SDS011;2321;42.704;23.384;2023-08-20T04:14:51;66.97;;;36.17;;
4616;SDS011;2321;42.704;23.384;2023-08-20T04:17:17;64.77;;;35.30;;
4616;SDS011;2321;42.704;23.384;2023-08-20T04:19:44;86.90;;;40.67;;
4616;SDS011;2321;42.704;23.384;2023-08-20T04:22:13;72.27;;;38.20;;
4616;SDS011;2321;42.704;23.384;2023-08-20T04:24:39;79.57;;;39.30;;
4616;SDS011;2321;42.704;23.384;2023-08-20T04:27:06;67.60;;;35.80;;
4616;SDS011;2321;42.704;23.384;2023-08-20T04:29:33;82.77;;;39.93;;
4616;SDS011;2321;42.704;23.384;2023-08-20T04:32:00;60.37;;;34.20;;
4616;SDS011;2321;42.704;23.384;2023-08-20T04:34:27;50.73;;;31.83;;
4616;SDS011;2321;42.704;23.384;2023-08-20T04:36:54;47.87;;;30.90;;
4616;SDS011;2321;42.704;23.384;2023-08-20T04:39:22;59.93;;;33.70;;
4616;SDS011;2321;42.704;23.384;2023-08-20T04:41:49;61.90;;;34.90;;
4616;SDS011;2321;42.704;23.384;2023-08-20T04:44:16;81.23;;;39.03;;
4616;SDS011;2321;42.704;23.384;2023-08-20T04:46:43;70.67;;;36.80;;
4616;SDS011;2321;42.704;23.384;2023-08-20T04:49:10;75.33;;;37.60;;
4616;SDS011;2321;42.704;23.384;2023-08-20T04:51:36;89.17;;;41.97;;
4616;SDS011;2321;42.704;23.384;2023-08-20T04:54:04;84.47;;;39.50;;
4616;SDS011;2321;42.704;23.384;2023-08-20T04:56:32;58.57;;;33.60;;
4616;SDS011;2321;42.704;23.384;2023-08-20T04:58:59;70.13;;;37.23;;
4616;SDS011;2321;42.704;23.384;2023-08-20T05:01:25;50.90;;;33.10;;
4616;SDS011;2321;42.704;23.384;2023-08-20T05:03:52;47.83;;;31.10;;
4616;SDS011;2321;42.704;23.384;2023-08-20T05:06:19;43.50;;;29.30;;
4616;SDS011;2321;42.704;23.384;2023-08-20T05:08:46;46.37;;;30.40;;
4616;SDS011;2321;42.704;23.384;2023-08-20T05:11:13;49.10;;;31.33;;
4616;SDS011;2321;42.704;23.384;2023-08-20T05:13:41;39.50;;;28.17;;
4616;SDS011;2321;42.704;23.384;2023-08-20T05:16:08;40.53;;;28.13;;
4616;SDS011;2321;42.704;23.384;2023-08-20T05:18:35;39.33;;;25.93;;
4616;SDS011;2321;42.704;23.384;2023-08-20T05:23:28;54.90;;;37.03;;
4616;SDS011;2321;42.704;23.384;2023-08-20T05:25:55;31.27;;;25.30;;
4616;SDS011;2321;42.704;23.384;2023-08-20T05:28:22;35.87;;;25.77;;
4616;SDS011;2321;42.704;23.384;2023-08-20T05:30:55;28.90;;;24.27;;
4616;SDS011;2321;42.704;23.384;2023-08-20T05:33:22;35.58;;;25.83;;
4616;SDS011;2321;42.704;23.384;2023-08-20T05:38:16;51.15;;;35.30;;
4616;SDS011;2321;42.704;23.384;2023-08-20T05:43:09;31.33;;;28.33;;
4616;SDS011;2321;42.704;23.384;2023-08-20T05:50:31;57.08;;;38.10;;
4616;SDS011;2321;42.704;23.384;2023-08-20T05:52:58;43.47;;;28.13;;
4616;SDS011;2321;42.704;23.384;2023-08-20T06:00:18;43.70;;;29.87;;
4616;SDS011;2321;42.704;23.384;2023-08-20T06:07:39;50.03;;;33.50;;
4616;SDS011;2321;42.704;23.384;2023-08-20T06:12:33;64.03;;;37.30;;
4616;SDS011;2321;42.704;23.384;2023-08-20T06:17:27;46.45;;;33.83;;
4616;SDS011;2321;42.704;23.384;2023-08-20T06:22:22;53.35;;;35.08;;
4616;SDS011;2321;42.704;23.384;2023-08-20T06:39:30;41.20;;;28.07;;
4616;SDS011;2321;42.704;23.384;2023-08-20T06:59:04;55.65;;;34.90;;
4616;SDS011;2321;42.704;23.384;2023-08-20T07:38:34;48.72;;;33.20;;
4616;SDS011;2321;42.704;23.384;2023-08-20T08:37:23;41.67;;;29.35;;
4616;SDS011;2321;42.704;23.384;2023-08-20T09:24:13;52.88;;;36.72;;
4616;SDS011;2321;42.704;23.384;2023-08-20T09:29:11;38.25;;;30.42;;
4616;SDS011;2321;42.704;23.384;2023-08-20T09:43:59;36.92;;;28.52;;
4616;SDS011;2321;42.704;23.384;2023-08-20T09:48:59;50.65;;;36.00;;
4616;SDS011;2321;42.704;23.384;2023-08-20T09:53:55;75.75;;;42.67;;
4616;SDS011;2321;42.704;23.384;2023-08-20T09:56:30;72.00;;;36.93;;
4616;SDS011;2321;42.704;23.384;2023-08-20T09:58:57;81.13;;;38.37;;
4616;SDS011;2321;42.704;23.384;2023-08-20T10:01:24;80.20;;;38.43;;
4616;SDS011;2321;42.704;23.384;2023-08-20T10:03:52;100.40;;;41.63;;
4616;SDS011;2321;42.704;23.384;2023-08-20T10:06:21;108.43;;;43.43;;
4616;SDS011;2321;42.704;23.384;2023-08-20T10:08:49;101.20;;;42.13;;
4616;SDS011;2321;42.704;23.384;2023-08-20T10:11:17;101.80;;;42.30;;
4616;SDS011;2321;42.704;23.384;2023-08-20T10:13:44;105.20;;;43.83;;
4616;SDS011;2321;42.704;23.384;2023-08-20T10:16:11;98.10;;;41.77;;
4616;SDS011;2321;42.704;23.384;2023-08-20T10:18:39;100.80;;;42.33;;
4616;SDS011;2321;42.704;23.384;2023-08-20T10:21:06;106.03;;;43.27;;
4616;SDS011;2321;42.704;23.384;2023-08-20T10:23:36;109.57;;;43.90;;
4616;SDS011;2321;42.704;23.384;2023-08-20T10:26:07;104.17;;;42.67;;
4616;SDS011;2321;42.704;23.384;2023-08-20T10:28:35;102.97;;;43.23;;
4616;SDS011;2321;42.704;23.384;2023-08-20T10:31:03;99.30;;;41.83;;
4616;SDS011;2321;42.704;23.384;2023-08-20T10:33:33;102.03;;;42.23;;
4616;SDS011;2321;42.704;23.384;2023-08-20T10:36:06;105.53;;;43.27;;
4616;SDS011;2321;42.704;23.384;2023-08-20T10:38:36;97.47;;;41.57;;
4616;SDS011;2321;42.704;23.384;2023-08-20T10:41:05;101.63;;;42.67;;
4616;SDS011;2321;42.704;23.384;2023-08-20T10:43:33;97.93;;;42.57;;
4616;SDS011;2321;42.704;23.384;2023-08-20T10:46:05;100.87;;;42.50;;
4616;SDS011;2321;42.704;23.384;2023-08-20T10:48:33;96.80;;;42.73;;
4616;SDS011;2321;42.704;23.384;2023-08-20T10:51:10;94.67;;;41.60;;
4616;SDS011;2321;42.704;23.384;2023-08-20T10:53:40;96.57;;;42.40;;
4616;SDS011;2321;42.704;23.384;2023-08-20T10:56:11;99.13;;;43.10;;
4616;SDS011;2321;42.704;23.384;2023-08-20T10:58:42;89.80;;;40.83;;
4616;SDS011;2321;42.704;23.384;2023-08-20T11:01:14;90.67;;;40.73;;
4616;SDS011;2321;42.704;23.384;2023-08-20T11:03:42;91.50;;;40.93;;
4616;SDS011;2321;42.704;23.384;2023-08-20T11:06:10;101.47;;;43.00;;
4616;SDS011;2321;42.704;23.384;2023-08-20T11:08:37;80.40;;;39.03;;
4616;SDS011;2321;42.704;23.384;2023-08-20T11:11:06;67.60;;;37.07;;
4616;SDS011;2321;42.704;23.384;2023-08-20T11:13:34;64.53;;;36.80;;
4616;SDS011;2321;42.704;23.384;2023-08-20T11:16:02;69.97;;;37.63;;
4616;SDS011;2321;42.704;23.384;2023-08-20T11:18:29;46.03;;;31.73;;
4616;SDS011;2321;42.704;23.384;2023-08-20T11:20:57;57.13;;;34.73;;
4616;SDS011;2321;42.704;23.384;2023-08-20T11:23:25;40.93;;;30.70;;
4616;SDS011;2321;42.704;23.384;2023-08-20T11:25:53;52.53;;;33.83;;
4616;SDS011;2321;42.704;23.384;2023-08-20T11:28:20;63.10;;;36.23;;
4616;SDS011;2321;42.704;23.384;2023-08-20T11:30:47;62.57;;;35.53;;
4616;SDS011;2321;42.704;23.384;2023-08-20T11:33:14;67.87;;;36.57;;
4616;SDS011;2321;42.704;23.384;2023-08-20T11:35:41;27.43;;;24.70;;
4616;SDS011;2321;42.704;23.384;2023-08-20T11:38:09;27.85;;;25.05;;
4616;SDS011;2321;42.704;23.384;2023-08-20T11:40:36;64.30;;;36.80;;
4616;SDS011;2321;42.704;23.384;2023-08-20T11:43:05;61.83;;;36.03;;
4616;SDS011;2321;42.704;23.384;2023-08-20T11:45:33;79.23;;;39.57;;
4616;SDS011;2321;42.704;23.384;2023-08-20T11:48:10;47.97;;;32.60;;
4616;SDS011;2321;42.704;23.384;2023-08-20T11:50:36;21.27;;;19.73;;
4616;SDS011;2321;42.704;23.384;2023-08-20T11:53:03;28.55;;;25.60;;
4616;SDS011;2321;42.704;23.384;2023-08-20T11:55:30;37.03;;;30.10;;
4616;SDS011;2321;42.704;23.384;2023-08-20T11:57:57;33.73;;;28.87;;
4616;SDS011;2321;42.704;23.384;2023-08-20T12:00:26;43.03;;;32.87;;
4616;SDS011;2321;42.704;23.384;2023-08-20T12:02:53;32.53;;;28.10;;
4616;SDS011;2321;42.704;23.384;2023-08-20T12:05:21;36.23;;;29.33;;
4616;SDS011;2321;42.704;23.384;2023-08-20T12:07:55;31.90;;;28.40;;
4616;SDS011;2321;42.704;23.384;2023-08-20T12:10:25;48.10;;;32.37;;
4616;SDS011;2321;42.704;23.384;2023-08-20T12:12:54;57.50;;;34.80;;
4616;SDS011;2321;42.704;23.384;2023-08-20T12:15:21;59.37;;;35.90;;
4616;SDS011;2321;42.704;23.384;2023-08-20T12:18:00;50.67;;;33.77;;
4616;SDS011;2321;42.704;23.384;2023-08-20T12:20:30;55.40;;;35.70;;
4616;SDS011;2321;42.704;23.384;2023-08-20T12:23:01;60.90;;;36.50;;
4616;SDS011;2321;42.704;23.384;2023-08-20T12:25:30;62.00;;;36.97;;
4616;SDS011;2321;42.704;23.384;2023-08-20T12:27:59;64.37;;;37.13;;
4616;SDS011;2321;42.704;23.384;2023-08-20T12:30:26;64.60;;;37.00;;
4616;SDS011;2321;42.704;23.384;2023-08-20T12:32:52;67.63;;;38.20;;
4616;SDS011;2321;42.704;23.384;2023-08-20T12:35:21;70.20;;;38.37;;
4616;SDS011;2321;42.704;23.384;2023-08-20T12:37:48;84.97;;;40.90;;
4616;SDS011;2321;42.704;23.384;2023-08-20T12:40:15;87.87;;;41.43;;
4616;SDS011;2321;42.704;23.384;2023-08-20T12:42:41;92.37;;;42.00;;
4616;SDS011;2321;42.704;23.384;2023-08-20T12:45:09;100.10;;;43.20;;
4616;SDS011;2321;42.704;23.384;2023-08-20T12:47:38;101.83;;;43.37;;
4616;SDS011;2321;42.704;23.384;2023-08-20T12:50:05;106.03;;;44.33;;
4616;SDS011;2321;42.704;23.384;2023-08-20T12:52:34;111.37;;;45.83;;
4616;SDS011;2321;42.704;23.384;2023-08-20T12:55:01;110.07;;;45.40;;
4616;SDS011;2321;42.704;23.384;2023-08-20T12:57:28;116.33;;;47.27;;
4616;SDS011;2321;42.704;23.384;2023-08-20T12:59:56;105.70;;;44.73;;
4616;SDS011;2321;42.704;23.384;2023-08-20T13:02:24;103.37;;;44.87;;
4616;SDS011;2321;42.704;23.384;2023-08-20T13:04:54;97.90;;;44.63;;
4616;SDS011;2321;42.704;23.384;2023-08-20T13:07:21;90.83;;;43.43;;
4616;SDS011;2321;42.704;23.384;2023-08-20T13:09:50;96.50;;;43.90;;
4616;SDS011;2321;42.704;23.384;2023-08-20T13:12:17;84.93;;;40.53;;
4616;SDS011;2321;42.704;23.384;2023-08-20T13:14:49;86.77;;;42.03;;
4616;SDS011;2321;42.704;23.384;2023-08-20T13:17:16;109.33;;;45.27;;
4616;SDS011;2321;42.704;23.384;2023-08-20T13:19:44;124.20;;;47.03;;
4616;SDS011;2321;42.704;23.384;2023-08-20T13:22:11;80.07;;;39.83;;
4616;SDS011;2321;42.704;23.384;2023-08-20T13:24:37;78.87;;;40.47;;
4616;SDS011;2321;42.704;23.384;2023-08-20T13:27:06;69.03;;;37.90;;
4616;SDS011;2321;42.704;23.384;2023-08-20T13:29:33;70.30;;;38.93;;
4616;SDS011;2321;42.704;23.384;2023-08-20T13:31:59;73.90;;;38.93;;
4616;SDS011;2321;42.704;23.384;2023-08-20T13:34:26;79.33;;;40.50;;
4616;SDS011;2321;42.704;23.384;2023-08-20T13:36:53;84.07;;;41.33;;
4616;SDS011;2321;42.704;23.384;2023-08-20T13:39:20;88.67;;;41.67;;
4616;SDS011;2321;42.704;23.384;2023-08-20T13:41:48;107.57;;;44.30;;
4616;SDS011;2321;42.704;23.384;2023-08-20T13:44:17;123.10;;;46.23;;
4616;SDS011;2321;42.704;23.384;2023-08-20T13:46:44;91.83;;;42.77;;
4616;SDS011;2321;42.704;23.384;2023-08-20T13:49:10;73.67;;;39.17;;
4616;SDS011;2321;42.704;23.384;2023-08-20T13:51:37;92.03;;;41.87;;
4616;SDS011;2321;42.704;23.384;2023-08-20T13:54:04;125.13;;;47.63;;
4616;SDS011;2321;42.704;23.384;2023-08-20T13:56:32;115.07;;;45.60;;
4616;SDS011;2321;42.704;23.384;2023-08-20T13:58:59;116.83;;;46.00;;
4616;SDS011;2321;42.704;23.384;2023-08-20T14:01:27;84.80;;;41.13;;
4616;SDS011;2321;42.704;23.384;2023-08-20T14:03:54;68.60;;;38.10;;
4616;SDS011;2321;42.704;23.384;2023-08-20T14:06:21;73.00;;;39.37;;
4616;SDS011;2321;42.704;23.384;2023-08-20T14:08:48;64.30;;;37.17;;
4616;SDS011;2321;42.704;23.384;2023-08-20T14:11:14;61.80;;;35.73;;
4616;SDS011;2321;42.704;23.384;2023-08-20T14:13:41;48.67;;;32.77;;
4616;SDS011;2321;42.704;23.384;2023-08-20T14:16:09;65.30;;;37.40;;
4616;SDS011;2321;42.704;23.384;2023-08-20T14:18:37;69.77;;;38.50;;
4616;SDS011;2321;42.704;23.384;2023-08-20T14:21:04;62.50;;;36.83;;
4616;SDS011;2321;42.704;23.384;2023-08-20T14:23:30;51.67;;;33.90;;
4616;SDS011;2321;42.704;23.384;2023-08-20T14:25:57;46.47;;;32.30;;
4616;SDS011;2321;42.704;23.384;2023-08-20T14:28:24;45.47;;;32.33;;
4616;SDS011;2321;42.704;23.384;2023-08-20T14:30:51;53.63;;;34.30;;
4616;SDS011;2321;42.704;23.384;2023-08-20T14:33:19;66.03;;;37.60;;
4616;SDS011;2321;42.704;23.384;2023-08-20T14:35:48;107.93;;;45.57;;
4616;SDS011;2321;42.704;23.384;2023-08-20T14:38:15;99.67;;;43.10;;
4616;SDS011;2321;42.704;23.384;2023-08-20T14:40:42;96.90;;;42.80;;
4616;SDS011;2321;42.704;23.384;2023-08-20T14:43:09;104.50;;;43.90;;
4616;SDS011;2321;42.704;23.384;2023-08-20T14:45:36;102.80;;;43.57;;
4616;SDS011;2321;42.704;23.384;2023-08-20T14:48:03;103.10;;;43.77;;
4616;SDS011;2321;42.704;23.384;2023-08-20T14:50:30;113.57;;;44.83;;
4616;SDS011;2321;42.704;23.384;2023-08-20T14:52:58;134.53;;;48.60;;
4616;SDS011;2321;42.704;23.384;2023-08-20T14:55:25;127.13;;;48.03;;
4616;SDS011;2321;42.704;23.384;2023-08-20T14:57:52;116.13;;;45.80;;
4616;SDS011;2321;42.704;23.384;2023-08-20T15:00:19;117.67;;;46.07;;
4616;SDS011;2321;42.704;23.384;2023-08-20T15:02:48;114.17;;;45.60;;
4616;SDS011;2321;42.704;23.384;2023-08-20T15:05:14;117.30;;;46.40;;
4616;SDS011;2321;42.704;23.384;2023-08-20T15:07:41;117.20;;;47.57;;
4616;SDS011;2321;42.704;23.384;2023-08-20T15:10:10;105.77;;;45.03;;
4616;SDS011;2321;42.704;23.384;2023-08-20T15:12:37;100.17;;;43.60;;
4616;SDS011;2321;42.704;23.384;2023-08-20T15:15:04;119.20;;;46.23;;
4616;SDS011;2321;42.704;23.384;2023-08-20T15:27:23;105.50;;;45.67;;
4616;SDS011;2321;42.704;23.384;2023-08-20T15:29:50;103.07;;;44.57;;
